Shoyo — JLPT — position and weather

sailwx.info

Track history (hours):
 
Tides and Currents Weather Stations Pressure Air Temp Water Temp Dewpoint Dewpoint Depression Visibility Wind Speed Wind Dir Waves Ship Positions

Oceanographic research ship Shoyo (Japan)

Detailed information on ship capabilities available from University of Delaware's Ocean Information Center.

Last reported at 2019-Aug-05 04:56 UTC. Time now 2019-Aug-24 08:54 UTC.
Position N 35°38' E 139°46'.
Warning: this ship's position is 19 days out of date.

Length 98 m; draft 5 m.

Type: Other ship. MMSI: 431130000.

Date/timePositionNaut miles runAvg speedWind from/ knotsBaromVisibWave heightAir tempDewpointWater temp
2019-Aug-05 04:56N 35°38' E 139°46'0 0.3
2019-Aug-05 04:21N 35°37' E 139°46'2 6.0
2019-Aug-05 04:00N 35°36' E 139°47'3 6.8
2019-Aug-05 03:30N 35°33' E 139°50'3 4.5
2019-Aug-05 02:56N 35°35' E 139°53'0 0.1
2019-Aug-05 02:29N 35°35' E 139°53'0 0.3
2019-Aug-05 01:56N 35°35' E 139°53'0 0.4
2019-Aug-05 01:29N 35°35' E 139°53'0 0.0
2019-Aug-05 00:59N 35°35' E 139°53'0 0.0
2019-Aug-05 00:29N 35°35' E 139°53'0 0.0
2019-Aug-04 23:59N 35°35' E 139°53'0 0.0
2019-Aug-04 23:29N 35°35' E 139°53'0 0.0
2019-Aug-04 22:59N 35°35' E 139°53'0 0.0
2019-Aug-04 22:29N 35°35' E 139°53'0 0.0
2019-Aug-04 21:59N 35°35' E 139°53'0 0.1
2019-Aug-04 21:29N 35°35' E 139°53'0 0.0
2019-Aug-04 20:59N 35°35' E 139°53'0 0.0
2019-Aug-04 20:29N 35°35' E 139°53'0 0.0
2019-Aug-04 19:56N 35°35' E 139°53'0 0.0
2019-Aug-04 19:29N 35°35' E 139°53'0 0.0
2019-Aug-04 18:59N 35°35' E 139°53'0 0.0
2019-Aug-04 18:26N 35°35' E 139°53'0 0.0
2019-Aug-04 17:59N 35°35' E 139°53'0 0.0
2019-Aug-04 17:29N 35°35' E 139°53'0 0.0
2019-Aug-04 16:59N 35°35' E 139°53'0 0.0
2019-Aug-04 16:29N 35°35' E 139°53'0 0.0
2019-Aug-04 15:59N 35°35' E 139°53'0 0.0
2019-Aug-04 15:29N 35°35' E 139°53'0 0.0
2019-Aug-04 14:56N 35°35' E 139°53'0 0.0
2019-Aug-04 14:29N 35°35' E 139°53'0 0.0
2019-Aug-04 13:59N 35°35' E 139°53'0 0.0
2019-Aug-04 13:29N 35°35' E 139°53'0 0.0
2019-Aug-04 12:59N 35°35' E 139°53'0 0.0
2019-Aug-04 12:29N 35°35' E 139°53'0 0.1
2019-Aug-04 11:59N 35°35' E 139°53'0 0.0
2019-Aug-04 11:29N 35°35' E 139°53'0 0.1
2019-Aug-04 10:59N 35°35' E 139°53'0 0.0
2019-Aug-04 10:29N 35°35' E 139°53'0 0.0
2019-Aug-04 09:59N 35°35' E 139°53'0 0.0
2019-Aug-04 09:29N 35°35' E 139°53'0 0.0
2019-Aug-04 08:59N 35°35' E 139°53'0 0.0
2019-Aug-04 08:29N 35°35' E 139°53'0 0.0
2019-Aug-04 07:59N 35°35' E 139°53'0 0.0
2019-Aug-04 07:29N 35°35' E 139°53'0 0.0
2019-Aug-04 06:59N 35°35' E 139°53'0 0.0
2019-Aug-04 06:29N 35°35' E 139°53'0 0.0
2019-Aug-04 05:59N 35°35' E 139°53'0 0.0
2019-Aug-04 05:29N 35°35' E 139°53'0 0.0
2019-Aug-04 04:59N 35°35' E 139°53'0 0.0
2019-Aug-04 04:29N 35°35' E 139°53'0 0.0
2019-Aug-04 03:59N 35°35' E 139°53'0 0.0
2019-Aug-04 03:29N 35°35' E 139°53'0 0.0
2019-Aug-04 02:59N 35°35' E 139°53'0 0.0
2019-Aug-04 02:29N 35°35' E 139°53'0 0.0
2019-Aug-04 01:59N 35°35' E 139°53'0 0.0
2019-Aug-04 01:29N 35°35' E 139°53'2 4.6
2019-Aug-04 01:00N 35°33' E 139°53'3 6.7
2019-Aug-04 00:30N 35°29' E 139°52'3 6.4
2019-Aug-04 00:00N 35°27' E 139°49'3 6.7
2019-Aug-03 23:30N 35°25' E 139°47'3 6.6
2019-Aug-03 23:00N 35°22' E 139°45'3 6.2
2019-Aug-03 22:30N 35°19' E 139°44'3 6.6
2019-Aug-03 22:00N 35°16' E 139°47'3 6.9
2019-Aug-03 21:30N 35°12' E 139°47'4 7.2
2019-Aug-03 21:00N 35°09' E 139°47'4 6.6
2019-Aug-03 20:25N 35°05' E 139°47'3 6.0
2019-Aug-03 19:58N 35°02' E 139°46'1 0.2
2019-Aug-03 13:21N 35°01' E 139°45'8 6.8
2019-Aug-03 12:08N 34°56' E 139°38'  
Track history (hours):
 
Tides and Currents Weather Stations Pressure Air Temp Water Temp Dewpoint Dewpoint Depression Visibility Wind Speed Wind Dir Waves Ship Positions

Oceanographic research ship Shoyo (Japan)

Detailed information on ship capabilities available from University of Delaware's Ocean Information Center.

Last reported at 2019-Aug-05 04:56 UTC. Time now 2019-Aug-24 08:54 UTC.
Position N 35°38' E 139°46'.
Warning: this ship's position is 19 days out of date.

Length 98 m; draft 5 m.

Type: Other ship. MMSI: 431130000.

Date/timePositionNaut miles runAvg speedWind from/ knotsBaromVisibWave heightAir tempDewpointWater temp
2019-Aug-05 04:56N 35°38' E 139°46'0 0.3
2019-Aug-05 04:21N 35°37' E 139°46'2 6.0
2019-Aug-05 04:00N 35°36' E 139°47'3 6.8
2019-Aug-05 03:30N 35°33' E 139°50'3 4.5
2019-Aug-05 02:56N 35°35' E 139°53'0 0.1
2019-Aug-05 02:29N 35°35' E 139°53'0 0.3
2019-Aug-05 01:56N 35°35' E 139°53'0 0.4
2019-Aug-05 01:29N 35°35' E 139°53'0 0.0
2019-Aug-05 00:59N 35°35' E 139°53'0 0.0
2019-Aug-05 00:29N 35°35' E 139°53'0 0.0
2019-Aug-04 23:59N 35°35' E 139°53'0 0.0
2019-Aug-04 23:29N 35°35' E 139°53'0 0.0
2019-Aug-04 22:59N 35°35' E 139°53'0 0.0
2019-Aug-04 22:29N 35°35' E 139°53'0 0.0
2019-Aug-04 21:59N 35°35' E 139°53'0 0.1
2019-Aug-04 21:29N 35°35' E 139°53'0 0.0
2019-Aug-04 20:59N 35°35' E 139°53'0 0.0
2019-Aug-04 20:29N 35°35' E 139°53'0 0.0
2019-Aug-04 19:56N 35°35' E 139°53'0 0.0
2019-Aug-04 19:29N 35°35' E 139°53'0 0.0
2019-Aug-04 18:59N 35°35' E 139°53'0 0.0
2019-Aug-04 18:26N 35°35' E 139°53'0 0.0
2019-Aug-04 17:59N 35°35' E 139°53'0 0.0
2019-Aug-04 17:29N 35°35' E 139°53'0 0.0
2019-Aug-04 16:59N 35°35' E 139°53'0 0.0
2019-Aug-04 16:29N 35°35' E 139°53'0 0.0
2019-Aug-04 15:59N 35°35' E 139°53'0 0.0
2019-Aug-04 15:29N 35°35' E 139°53'0 0.0
2019-Aug-04 14:56N 35°35' E 139°53'0 0.0
2019-Aug-04 14:29N 35°35' E 139°53'0 0.0
2019-Aug-04 13:59N 35°35' E 139°53'0 0.0
2019-Aug-04 13:29N 35°35' E 139°53'0 0.0
2019-Aug-04 12:59N 35°35' E 139°53'0 0.0
2019-Aug-04 12:29N 35°35' E 139°53'0 0.1
2019-Aug-04 11:59N 35°35' E 139°53'0 0.0
2019-Aug-04 11:29N 35°35' E 139°53'0 0.1
2019-Aug-04 10:59N 35°35' E 139°53'0 0.0
2019-Aug-04 10:29N 35°35' E 139°53'0 0.0
2019-Aug-04 09:59N 35°35' E 139°53'0 0.0
2019-Aug-04 09:29N 35°35' E 139°53'0 0.0
2019-Aug-04 08:59N 35°35' E 139°53'0 0.0
2019-Aug-04 08:29N 35°35' E 139°53'0 0.0
2019-Aug-04 07:59N 35°35' E 139°53'0 0.0
2019-Aug-04 07:29N 35°35' E 139°53'0 0.0
2019-Aug-04 06:59N 35°35' E 139°53'0 0.0
2019-Aug-04 06:29N 35°35' E 139°53'0 0.0
2019-Aug-04 05:59N 35°35' E 139°53'0 0.0
2019-Aug-04 05:29N 35°35' E 139°53'0 0.0
2019-Aug-04 04:59N 35°35' E 139°53'0 0.0
2019-Aug-04 04:29N 35°35' E 139°53'0 0.0
2019-Aug-04 03:59N 35°35' E 139°53'0 0.0
2019-Aug-04 03:29N 35°35' E 139°53'0 0.0
2019-Aug-04 02:59N 35°35' E 139°53'0 0.0
2019-Aug-04 02:29N 35°35' E 139°53'0 0.0
2019-Aug-04 01:59N 35°35' E 139°53'0 0.0
2019-Aug-04 01:29N 35°35' E 139°53'2 4.6
2019-Aug-04 01:00N 35°33' E 139°53'3 6.7
2019-Aug-04 00:30N 35°29' E 139°52'3 6.4
2019-Aug-04 00:00N 35°27' E 139°49'3 6.7
2019-Aug-03 23:30N 35°25' E 139°47'3 6.6
2019-Aug-03 23:00N 35°22' E 139°45'3 6.2
2019-Aug-03 22:30N 35°19' E 139°44'3 6.6
2019-Aug-03 22:00N 35°16' E 139°47'3 6.9
2019-Aug-03 21:30N 35°12' E 139°47'4 7.2
2019-Aug-03 21:00N 35°09' E 139°47'4 6.6
2019-Aug-03 20:25N 35°05' E 139°47'3 6.0
2019-Aug-03 19:58N 35°02' E 139°46'1 0.2
2019-Aug-03 13:21N 35°01' E 139°45'8 6.8
2019-Aug-03 12:08N 34°56' E 139°38'  

Dump ship's entire track history